Ely, Nevada Weather observations

Data are for observation ending at time listed.
 Day   Time    Ave.   Ave.  Ave.  Vector   Max.   Stn.    Total    Solar   Ave.  
  of    of     Air    Rel.  Wind   Wind    Wind   Baro.  Precip.   Rad.    Soil  
Year   Day     Temp.  Hum.  Speed  Dir.    Gust   Pres.                    Temp. 
2016   (PST)    F      %     mph   deg.    mph     mb.     in.     W/m2     F   
------------------------------------------------------------------------------
 121   16:00   48.9    60   24.8   330     32.2   806.0    0.00     549    48.3
 121   16:10   48.8    61   25.0   329     31.0   806.2    0.00     458    48.3
 121   16:20   47.5    64   19.7   342     30.5   806.4    0.00     164    48.4
 121   16:30   48.7    60   18.9   326     25.7   806.3    0.00     478    48.3
 121   16:40   49.2    57   23.0   328     34.0   806.3    0.00     331    48.5
 121   16:50   46.5    66   22.7   334     32.3   806.4    0.00      73    48.4
 121   17:00   45.5    68   20.2   330     27.6   806.5    0.00      42    47.9
 121   17:10   45.6    67   18.8   331     25.4   806.6    0.00      49    47.6
 121   17:20   43.9    75   25.7   328     33.3   806.8    0.00      31    47.3
 121   17:30   42.6    79   21.7   325     28.6   807.0    0.00      26    46.8
 121   17:40   42.8    80   19.4   326     26.1   807.0    0.00      49    46.5
 121   17:50   43.1    77   14.2   331     18.9   807.0    0.00      40    46.3
 121   18:00   42.7    77   15.4   333     23.9   807.1    0.00      20    46.0
 121   18:10   42.2    79   16.4   331     22.1   807.2    0.00      18    45.8
 121   18:20   41.3    80   15.4   331     20.8   807.3    0.00       8    45.5
 121   18:30   40.9    81   11.4   341     16.5   807.4    0.00       7    45.3
 121   18:40   40.8    81   11.9   337     16.4   807.5    0.00       7    45.0
 121   18:50   40.9    80   10.6   340     16.9   807.5    0.00       6    44.8
 121   19:00   40.7    81    9.6   342     13.3   807.6    0.00       2    44.6
 121   19:10   40.7    81   10.4   341     15.0   807.7    0.00       0    44.5
 121   19:20   40.7    82   10.1   342     15.1   807.9    0.00       1    44.2
 121   19:30   40.4    83   11.2   336     15.5   807.9    0.00       0    44.1
 121   19:40   40.0    84   13.0   333     18.9   808.0    0.00       1    43.9
 121   19:50   39.9    83   13.7   330     17.0   808.1    0.00       1    43.7
 121   20:00   39.9    82   12.8   326     17.0   808.2    0.00       0    43.5
 121   20:10   39.9    82   12.2   326     16.1   808.3    0.00       0    43.3
 121   20:20   40.1    81    8.5   346     13.0   808.3    0.00       1    43.2
 121   20:30   39.8    82    8.8     1     14.3   808.4    0.00       1    43.1
 121   20:40   40.8    80   14.3   341     20.8   808.5    0.00       0    43.0
 121   20:50   40.3    82   12.2   354     17.8   808.5    0.00       1    42.9
 121   21:00   39.9    84   10.4   352     15.3   808.6    0.00       0    42.7
 121   21:10   40.0    84   11.8   351     16.4   808.6    0.00       0    42.8
 121   21:20   40.1    82   12.3   352     17.0   808.6    0.00       0    42.7
 121   21:30   40.0    83   10.9   346     16.1   808.6    0.00       1    42.7
 121   21:40   39.6    85   11.8   346     17.9   808.7    0.00       0    42.6
 121   21:50   39.2    88    9.5   351     12.9   808.6    0.00       0    42.6
 121   22:00   39.2    87    9.9   352     15.9   808.5    0.00       0    42.5
 121   22:10   39.1    88    7.3   352     10.7   808.5    0.00       0    42.4
 121   22:20   39.5    87    9.3   346     14.2   808.6    0.00       0    42.4
 121   22:30   39.7    86    8.4   352     13.7   808.5    0.00       0    42.4
 121   22:40   39.5    87    8.6   351     12.2   808.5    0.00       0    42.3
 121   22:50   39.1    87   10.3   359     14.8   808.4    0.00       0    42.2
 121   23:00   38.7    87   11.2     6     14.6   808.5    0.00       0    42.1
 121   23:10   38.7    87   12.9     1     17.2   808.4    0.00       0    41.9
 121   23:20   38.4    88   11.7   354     16.0   808.5    0.00       0    41.8
 121   23:30   38.3    89   11.2   352     15.3   808.5    0.00       0    41.6
 121   23:40   38.1    90    9.6   358     14.8   808.5    0.00       1    41.6
 121   23:50   38.2    89   11.4   357     16.5   808.5    0.00       0    41.5
 122    0:00   38.2    89   12.6   355     17.2   808.5    0.01       0    41.4
 122    0:10   38.4    89   10.7   350     15.5   808.5    0.00       1    41.4
 122    0:20   38.5    88   10.9   355     14.4   808.4    0.00       0    41.2
 122    0:30   38.6    88   10.4   350     14.8   808.3    0.00       0    41.3
 122    0:40   38.7    87   12.8   350     17.6   808.1    0.00       0    41.2
 122    0:50   38.8    85   16.3   348     23.4   808.0    0.00       0    41.2
 122    1:00   38.7    85   16.7   347     21.9   807.8    0.00       1    41.0
 122    1:10   38.5    86   15.7   348     21.3   807.7    0.00       0    40.9
 122    1:20   38.4    86   14.8   342     20.5   807.6    0.00       0    40.8
 122    1:30   38.2    86   16.1   341     25.1   807.5    0.00       0    40.7
 122    1:40   38.3    86   19.4   340     25.7   807.4    0.00       0    40.6
 122    1:50   38.0    86   18.6   341     25.5   807.3    0.00       0    40.5
 122    2:00   37.9    87   18.3   340     25.4   807.4    0.00       0    40.4
 122    2:10   37.7    87   20.2   335     24.5   807.4    0.00       0    40.3
 122    2:20   37.6    87   17.1   339     22.4   807.6    0.00       0    40.2
 122    2:30   37.6    87   16.0   339     21.5   807.6    0.00       0    40.1
 122    2:40   37.7    86   16.0   335     20.2   807.7    0.00       0    40.0
 122    2:50   38.0    84   14.9   334     19.3   807.8    0.00       0    40.0
 122    3:00   37.9    85   13.0   332     16.7   807.9    0.00       0    39.9
 122    3:10   38.0    86   13.1   335     17.0   807.9    0.00       0    39.9
 122    3:20   38.0    86   10.8   338     14.7   808.0    0.00       0    39.9
 122    3:30   38.1    85   13.0   336     17.0   807.9    0.00       0    39.9
 122    3:40   38.1    85   11.7   344     19.1   807.9    0.00       0    39.9
 122    3:50   38.4    83   11.8   343     17.2   807.9    0.00       0    39.9
 122    4:00   38.1    84    9.5   358     14.2   808.0    0.00       0    39.9
 122    4:10   38.3    82   11.8   354     17.5   808.0    0.00       1    39.9
 122    4:20   38.6    80   12.4   348     19.9   808.0    0.00       0    39.9
 122    4:30   38.6    78   15.2   346     20.6   808.0    0.00       1    39.8
 122    4:40   38.4    80   14.2   344     20.9   807.9    0.00       6    39.8
 122    4:50   38.1    81   12.3   336     17.2   808.0    0.00       7    39.7
 122    5:00   37.8    82   11.9   332     15.9   808.1    0.00      18    39.7
 122    5:10   37.8    81   13.3   334     19.0   808.1    0.00      30    39.7
 122    5:20   37.9    80   12.3   339     17.8   808.3    0.00      40    39.6
 122    5:30   38.0    78   11.4   341     17.2   808.4    0.00      59    39.6
 122    5:40   38.2    77   13.6   337     20.7   808.5    0.00      78    39.5
 122    5:50   38.2    78   10.4   343     16.1   808.6    0.00      83    39.7
 122    6:00   38.3    77   10.2   343     15.2   808.7    0.00      94    39.6
 122    6:10   38.7    76    9.1   341     13.5   808.8    0.00     210    39.7
 122    6:20   39.7    73    9.3   333     14.2   808.9    0.00     253    39.9
 122    6:30   39.6    70    9.0   340     15.0   809.0    0.00     148    40.1
 122    6:40   40.0    69    9.5   332     14.2   809.0    0.00     173    40.2
 122    6:50   40.5    66   13.0   335     18.4   809.1    0.00     154    40.5
 122    7:00   40.0    68   15.5   330     19.1   809.1    0.00     154    40.5
 122    7:10   40.4    66   16.8   333     22.9   809.1    0.00     165    40.5
 122    7:20   40.9    62   16.2   341     23.6   809.1    0.00     160    40.5
 122    7:30   41.2    62   15.5   339     22.5   809.1    0.00     240    40.5
 122    7:40   42.3    60   16.5   338     22.4   809.1    0.00     655    40.6
 122    7:50   43.3    57   15.3   351     20.2   809.2    0.00     701    41.0
 122    8:00   42.7    56   14.4   356     19.7   809.2    0.00     315    41.2
 122    8:10   42.8    57   11.7   356     18.9   809.2    0.00     314    41.3
 122    8:20   42.6    57   12.6   356     17.8   809.2    0.00     309    41.5
 122    8:30   43.0    58   13.4   343     20.7   809.1    0.00     374    41.7
 122    8:40   43.7    56   13.0   339     24.3   809.1    0.00     707    42.0
 122    8:50   43.9    55   16.8   328     21.9   809.2    0.00     366    42.3
 122    9:00   43.5    56   16.3   331     20.5   809.1    0.00     338    42.4
 122    9:10   44.5    54   16.4   326     22.4   809.1    0.00     639    42.5
 122    9:20   44.6    55   16.9   330     24.5   809.2    0.00     475    42.7
 122    9:30   45.5    53   16.6   336     24.5   809.3    0.00    1041    42.9
 122    9:40   46.7    51   16.5   337     22.7   809.3    0.00    1075    43.4
 122    9:50   47.1    51   15.6   339     21.9   809.3    0.00    1019    44.0
 122   10:00   46.9    50   15.8   335     24.4   809.2    0.00     911    44.5
 122   10:10   47.2    50   14.2   341     23.8   809.3    0.00    1007    45.0
 122   10:20   47.7    49   15.1   340     21.9   809.3    0.00    1019    45.6
 122   10:30   47.9    49   16.5   338     22.4   809.2    0.00    1106    46.2
 122   10:40   48.0    48   14.3   334     21.5   809.2    0.00     932    46.7
 122   10:50   48.2    48   14.7   331     21.7   809.1    0.00    1068    47.1
 122   11:00   48.7    47   14.5   328     21.4   809.1    0.00    1011    47.7
 122   11:10   48.8    46   12.4   330     20.0   809.0    0.00    1144    48.2
 122   11:20   48.6    44   11.7   336     20.9   809.0    0.00     718    48.7
 122   11:30   49.1    45   15.3   334     22.9   808.9    0.00     998    48.7
 122   11:40   49.6    44   15.1   325     21.9   808.9    0.00    1153    49.0
 122   11:50   50.3    44   15.3   333     22.9   808.9    0.00     989    49.5
 122   12:00   50.5    44   17.1   331     24.8   808.8    0.00    1137    49.8
 122   12:10   50.8    42   16.8   342     24.7   808.8    0.00    1068    50.1
 122   12:20   50.4    44   17.2   340     22.9   808.8    0.00     750    50.0
 122   12:30   49.8    45   16.2   339     23.2   808.9    0.00     603    49.6
 122   12:40   49.5    44   18.3   331     25.6   808.9    0.00     558    49.5
 122   12:50   49.6    45   16.1   338     23.1   809.0    0.00     491    49.5
 122   13:00   50.0    45   15.7   337     22.9   809.1    0.00     521    49.6
 122   13:10   49.6    44   14.1   337     20.2   809.2    0.00     424    49.6
 122   13:20   49.4    45   15.3   337     19.5   809.2    0.00     403    49.6
 122   13:30   49.4    45   15.3   334     20.7   809.2    0.00     376    49.5
 122   13:40   49.3    46   16.6   332     21.7   809.2    0.00     360    49.4
 122   13:50   49.5    45   13.7   342     19.5   809.3    0.00     377    49.3
 122   14:00   49.7    45   15.6   335     20.7   809.2    0.00     443    49.2
 122   14:10   49.5    45   15.7   339     20.8   809.3    0.00     462    49.3
 122   14:20   49.8    45   14.4   337     19.7   809.3    0.00     420    49.3
 122   14:30   49.6    45   14.9   334     21.3   809.3    0.00     425    49.4
 122   14:40   49.7    45   14.5   337     19.5   809.3    0.00     406    49.4
 122   14:50   49.7    45   14.1   338     20.6   809.2    0.00     366    49.4
 122   15:00   49.6    45   14.4   336     20.8   809.2    0.00     336    49.4
 122   15:10   50.3    44   14.5   336     21.8   809.2    0.00     615    49.3
 122   15:20   51.0    44   13.9   329     20.5   809.2    0.00     477    49.5
 122   15:30   50.6    44   12.1   341     19.9   809.2    0.00     391    49.5
 122   15:40   50.4    43   11.1   339     18.3   809.3    0.00     297    49.6
 122   15:50   50.1    43   10.7   337     16.5   809.3    0.00     236    49.5

Return to Ely, Nevada graphs page.


Western Regional Climate Center,wrcc@dri.edu